createdAt,value
2023-05-04T00:00:10.138Z,16.50
2023-05-04T00:02:39.015Z,16.40
2023-05-04T00:05:06.694Z,16.40
2023-05-04T00:07:33.543Z,16.40
2023-05-04T00:10:01.270Z,16.40
2023-05-04T00:12:28.607Z,16.40
2023-05-04T00:14:55.540Z,16.30
2023-05-04T00:17:22.879Z,16.30
2023-05-04T00:19:50.306Z,16.30
2023-05-04T00:22:17.089Z,16.30
2023-05-04T00:24:46.672Z,16.30
2023-05-04T00:27:13.493Z,16.30
2023-05-04T00:29:40.425Z,16.20
2023-05-04T00:32:07.354Z,16.20
2023-05-04T00:34:34.263Z,16.20
2023-05-04T00:37:01.567Z,16.20
2023-05-04T00:39:28.550Z,16.20
2023-05-04T00:41:55.981Z,16.10
2023-05-04T00:44:24.095Z,16.10
2023-05-04T00:46:55.120Z,16.10
2023-05-04T00:49:22.603Z,16.00
2023-05-04T00:51:51.431Z,16.00
2023-05-04T00:54:19.164Z,16.00
2023-05-04T00:56:47.566Z,16.00
2023-05-04T00:59:14.829Z,15.90
2023-05-04T01:01:42.234Z,15.90
2023-05-04T01:04:09.955Z,15.90
2023-05-04T01:06:58.314Z,15.80
2023-05-04T01:09:45.034Z,15.80
2023-05-04T01:12:26.013Z,15.80
2023-05-04T01:14:54.645Z,15.80
2023-05-04T01:17:22.250Z,15.80
2023-05-04T01:22:17.950Z,15.60
2023-05-04T01:27:27.405Z,15.70
2023-05-04T01:30:37.349Z,15.60
2023-05-04T01:33:04.738Z,15.60
2023-05-04T01:35:31.808Z,15.60
2023-05-04T01:37:59.744Z,15.60
2023-05-04T01:40:26.783Z,15.60
2023-05-04T01:42:55.102Z,15.60
2023-05-04T01:45:22.445Z,15.50
2023-05-04T01:47:49.995Z,15.50
2023-05-04T01:50:16.906Z,15.50
2023-05-04T01:52:43.698Z,15.50
2023-05-04T01:55:11.215Z,15.50
2023-05-04T01:57:38.060Z,15.40
2023-05-04T02:00:05.403Z,15.40
2023-05-04T02:02:42.707Z,15.40
2023-05-04T02:05:10.529Z,15.40
2023-05-04T02:07:37.827Z,15.40
2023-05-04T02:10:05.385Z,15.40
2023-05-04T02:12:32.430Z,15.40
2023-05-04T02:14:59.227Z,15.40
2023-05-04T02:17:26.106Z,15.30
2023-05-04T02:24:47.347Z,15.30
2023-05-04T02:27:14.121Z,15.20
2023-05-04T02:29:41.254Z,15.10
2023-05-04T02:32:08.035Z,15.10
2023-05-04T02:34:35.462Z,15.00
2023-05-04T02:46:53.202Z,14.80
2023-05-04T02:49:20.052Z,14.70
2023-05-04T02:51:47.410Z,14.70
2023-05-04T02:56:41.598Z,14.60
2023-05-04T03:01:35.712Z,14.50
2023-05-04T03:21:14.682Z,14.20
2023-05-04T03:38:28.941Z,14.10
2023-05-04T03:40:56.419Z,14.10
2023-05-04T03:43:23.581Z,14.10
2023-05-04T03:45:50.538Z,14.00
2023-05-04T03:48:17.603Z,14.00
2023-05-04T03:53:11.657Z,14.00
2023-05-04T03:58:06.860Z,14.00
2023-05-04T04:08:05.600Z,14.00
2023-05-04T04:10:32.458Z,14.00
2023-05-04T04:20:21.263Z,14.00
2023-05-04T04:25:15.331Z,14.00
2023-05-04T04:30:09.868Z,14.10
2023-05-04T04:32:37.559Z,14.10
2023-05-04T04:35:05.266Z,14.10
2023-05-04T04:47:21.472Z,14.30
2023-05-04T04:52:17.245Z,14.30
2023-05-04T05:02:06.993Z,14.50
2023-05-04T05:11:56.538Z,14.60
2023-05-04T05:14:23.359Z,14.70
2023-05-04T05:19:17.519Z,14.70
2023-05-04T05:34:01.449Z,14.90
2023-05-04T05:38:55.754Z,14.90
2023-05-04T05:43:50.285Z,14.90
2023-05-04T05:48:45.512Z,15.00
2023-05-04T06:05:56.564Z,15.20
2023-05-04T06:10:51.628Z,15.20
2023-05-04T06:15:55.697Z,15.30
2023-05-04T06:18:22.795Z,15.30
2023-05-04T06:26:07.827Z,15.40
2023-05-04T06:32:41.929Z,15.50
2023-05-04T06:37:36.791Z,15.60
2023-05-04T06:57:16.503Z,15.90
2023-05-04T06:59:43.357Z,15.90
2023-05-04T07:09:31.952Z,16.00
2023-05-04T07:14:25.959Z,16.10
2023-05-04T07:19:20.148Z,16.10
2023-05-04T07:24:14.496Z,16.10
2023-05-04T07:34:05.382Z,16.20
2023-05-04T07:36:35.290Z,16.20
2023-05-04T07:39:02.640Z,16.20
2023-05-04T07:41:29.467Z,16.30
2023-05-04T07:48:51.036Z,16.40
2023-05-04T07:51:18.627Z,16.40
2023-05-04T07:53:45.691Z,16.50
2023-05-04T07:56:13.396Z,16.50
2023-05-04T07:58:40.629Z,16.40
2023-05-04T08:01:07.573Z,16.60
2023-05-04T08:06:02.022Z,16.70
2023-05-04T08:08:28.953Z,16.80
2023-05-04T08:11:02.022Z,16.80
2023-05-04T08:13:35.628Z,16.90
2023-05-04T08:18:29.650Z,17.10
2023-05-04T08:20:56.621Z,17.10
2023-05-04T08:23:23.422Z,17.20
2023-05-04T08:25:50.437Z,17.30
2023-05-04T08:28:17.505Z,17.30
2023-05-04T08:30:44.432Z,17.50
2023-05-04T08:33:11.381Z,17.50
2023-05-04T08:35:38.336Z,17.60
2023-05-04T08:38:05.426Z,17.70
2023-05-04T08:40:33.689Z,16.20
2023-05-04T08:43:00.590Z,17.90
2023-05-04T08:45:28.545Z,18.00
2023-05-04T08:47:55.945Z,18.10
2023-05-04T08:50:22.890Z,18.10
2023-05-04T08:52:50.328Z,18.20
2023-05-04T08:59:10.229Z,18.30
2023-05-04T09:05:51.049Z,18.50
2023-05-04T09:08:20.482Z,18.60
2023-05-04T09:10:47.355Z,18.70
2023-05-04T09:13:14.750Z,18.70
2023-05-04T09:15:42.356Z,18.80
2023-05-04T09:18:10.169Z,18.90
2023-05-04T09:20:47.947Z,18.90
2023-05-04T09:23:16.235Z,19.10
2023-05-04T09:25:50.789Z,19.00
2023-05-04T09:28:18.758Z,19.10
2023-05-04T09:30:48.126Z,19.20
2023-05-04T09:33:27.336Z,19.30
2023-05-04T09:35:54.434Z,19.30
2023-05-04T09:38:32.670Z,19.40
2023-05-04T09:40:59.491Z,19.40
2023-05-04T09:43:36.891Z,19.50
2023-05-04T09:46:03.814Z,19.50
2023-05-04T09:48:30.886Z,19.60
2023-05-04T09:51:03.356Z,19.70
2023-05-04T09:53:31.720Z,19.70
2023-05-04T09:56:28.609Z,19.80
2023-05-04T09:58:59.768Z,19.90
2023-05-04T10:01:30.205Z,20.00
2023-05-04T10:03:57.560Z,19.90
2023-05-04T10:06:24.858Z,20.10
2023-05-04T10:08:52.208Z,20.10
2023-05-04T10:11:20.600Z,20.20
2023-05-04T10:13:49.514Z,20.20
2023-05-04T10:16:23.685Z,20.30
2023-05-04T10:19:18.000Z,20.40
2023-05-04T10:21:53.975Z,20.40
2023-05-04T10:24:57.166Z,20.50
2023-05-04T10:28:09.853Z,20.60
2023-05-04T10:30:36.985Z,20.70
2023-05-04T10:33:04.471Z,20.80
2023-05-04T10:35:32.364Z,20.90
2023-05-04T10:37:59.354Z,21.00
2023-05-04T10:40:36.521Z,21.10
2023-05-04T10:43:03.824Z,21.10
2023-05-04T10:45:37.214Z,21.20
2023-05-04T10:48:05.148Z,21.30
2023-05-04T10:50:49.257Z,21.40
2023-05-04T10:53:17.886Z,21.50
2023-05-04T10:55:48.521Z,21.60
2023-05-04T10:58:21.707Z,21.60
2023-05-04T11:00:51.690Z,21.70
2023-05-04T11:03:19.280Z,21.90
2023-05-04T11:05:50.727Z,22.00
2023-05-04T11:08:22.572Z,22.00
2023-05-04T11:11:03.519Z,22.10
2023-05-04T11:13:33.763Z,22.20
2023-05-04T11:16:00.917Z,22.30
2023-05-04T11:18:35.621Z,22.40
2023-05-04T11:21:03.270Z,22.50
2023-05-04T11:23:30.410Z,22.50
2023-05-04T11:25:57.261Z,22.60
2023-05-04T11:28:37.323Z,22.70
2023-05-04T11:31:13.962Z,22.80
2023-05-04T11:33:54.919Z,22.80
2023-05-04T11:36:22.823Z,22.90
2023-05-04T11:38:50.197Z,23.10
2023-05-04T11:41:17.143Z,23.10
2023-05-04T11:43:45.620Z,23.10
2023-05-04T11:46:14.015Z,23.30
2023-05-04T11:48:41.249Z,23.30
2023-05-04T11:51:08.090Z,23.40
2023-05-04T11:53:38.941Z,23.50
2023-05-04T11:56:08.791Z,23.60
2023-05-04T11:58:36.083Z,23.70
2023-05-04T12:01:04.175Z,23.80
2023-05-04T12:03:48.597Z,23.90
2023-05-04T12:06:18.685Z,24.00
2023-05-04T12:08:45.643Z,24.10
2023-05-04T12:11:25.273Z,24.10
2023-05-04T12:14:10.145Z,24.20
2023-05-04T12:16:38.282Z,24.40
2023-05-04T12:19:08.769Z,24.40
2023-05-04T12:21:36.203Z,24.50
2023-05-04T12:24:03.955Z,24.60
2023-05-04T12:26:31.245Z,24.70
2023-05-04T12:28:58.039Z,24.80
2023-05-04T12:31:25.510Z,24.90
2023-05-04T12:33:52.679Z,25.00
2023-05-04T12:36:19.583Z,25.20
2023-05-04T12:38:46.606Z,25.30
2023-05-04T12:41:13.775Z,25.40
2023-05-04T12:43:40.827Z,25.60
2023-05-04T12:46:07.879Z,25.70
2023-05-04T12:48:34.954Z,26.00
2023-05-04T12:51:04.224Z,26.00
2023-05-04T12:53:32.193Z,26.20
2023-05-04T12:56:00.494Z,26.40
2023-05-04T12:58:27.931Z,26.50
2023-05-04T13:00:55.550Z,26.70
2023-05-04T13:03:22.541Z,26.90
2023-05-04T13:05:49.949Z,27.00
2023-05-04T13:08:18.343Z,27.20
2023-05-04T13:10:46.309Z,27.50
2023-05-04T13:13:15.452Z,27.80
2023-05-04T13:15:42.881Z,28.20
2023-05-04T13:18:09.803Z,28.60
2023-05-04T13:20:36.564Z,29.00
2023-05-04T13:23:03.384Z,29.50
2023-05-04T13:25:30.181Z,30.00
2023-05-04T13:27:58.788Z,30.60
2023-05-04T13:30:25.832Z,31.20
2023-05-04T13:32:52.988Z,31.60
2023-05-04T13:35:20.049Z,32.20
2023-05-04T13:37:47.013Z,32.70
2023-05-04T13:40:14.657Z,33.20
2023-05-04T13:42:44.023Z,33.60
2023-05-04T13:45:11.233Z,34.10
2023-05-04T13:47:38.220Z,34.50
2023-05-04T13:50:05.824Z,34.90
2023-05-04T13:52:33.068Z,35.40
2023-05-04T13:55:00.358Z,35.70
2023-05-04T13:57:27.897Z,36.00
2023-05-04T14:00:06.290Z,36.30
2023-05-04T14:02:40.064Z,36.50
2023-05-04T14:05:07.979Z,36.80
2023-05-04T14:07:35.341Z,37.10
2023-05-04T14:10:02.503Z,37.20
2023-05-04T14:12:29.477Z,37.40
2023-05-04T14:14:58.216Z,37.70
2023-05-04T14:17:26.051Z,37.80
2023-05-04T14:19:53.335Z,38.10
2023-05-04T14:22:20.487Z,38.40
2023-05-04T14:24:47.340Z,38.50
2023-05-04T14:27:14.241Z,38.70
2023-05-04T14:29:41.154Z,38.90
2023-05-04T14:32:08.121Z,39.00
2023-05-04T14:34:36.109Z,39.10
2023-05-04T14:37:02.919Z,39.20
2023-05-04T14:39:29.778Z,39.30
2023-05-04T14:41:57.979Z,39.40
2023-05-04T14:44:26.073Z,39.50
2023-05-04T14:46:53.410Z,39.70
2023-05-04T14:49:34.869Z,39.90
2023-05-04T14:52:04.039Z,40.00
2023-05-04T14:54:30.886Z,40.20
2023-05-04T14:56:59.088Z,40.30
2023-05-04T14:59:26.273Z,40.40
2023-05-04T15:01:54.769Z,40.50
2023-05-04T15:04:21.991Z,40.50
2023-05-04T15:06:49.535Z,40.50
2023-05-04T15:09:16.557Z,40.50
2023-05-04T15:11:43.436Z,40.50
2023-05-04T15:14:10.322Z,40.50
2023-05-04T15:16:37.201Z,40.40
2023-05-04T15:19:04.188Z,40.30
2023-05-04T15:21:31.634Z,40.20
2023-05-04T15:23:58.676Z,40.20
2023-05-04T15:26:25.871Z,39.00
2023-05-04T15:28:54.086Z,40.10
2023-05-04T15:31:21.671Z,40.10
2023-05-04T15:33:48.929Z,40.10
2023-05-04T15:36:15.706Z,37.80
2023-05-04T15:38:43.718Z,40.10
2023-05-04T15:41:10.816Z,40.00
2023-05-04T15:43:37.762Z,39.90
2023-05-04T15:46:04.697Z,39.80
2023-05-04T15:48:31.578Z,39.70
2023-05-04T15:50:58.364Z,39.60
2023-05-04T15:53:25.248Z,39.50
2023-05-04T15:55:52.368Z,39.30
2023-05-04T15:58:19.217Z,39.20
2023-05-04T16:00:46.124Z,39.10
2023-05-04T16:03:13.058Z,39.00
2023-05-04T16:05:40.153Z,38.90
2023-05-04T16:08:06.964Z,39.70
2023-05-04T16:10:34.336Z,38.80
2023-05-04T16:13:04.172Z,38.80
2023-05-04T16:15:31.384Z,38.90
2023-05-04T16:17:58.512Z,38.90
2023-05-04T16:20:26.902Z,39.00
2023-05-04T16:22:53.933Z,39.20
2023-05-04T16:25:20.829Z,39.40
2023-05-04T16:27:47.846Z,39.60
2023-05-04T16:30:15.643Z,39.80
2023-05-04T16:32:42.561Z,40.10
2023-05-04T16:35:09.800Z,40.30
2023-05-04T16:37:37.910Z,40.50
2023-05-04T16:40:15.469Z,40.80
2023-05-04T16:42:42.924Z,41.10
2023-05-04T16:45:13.749Z,41.30
2023-05-04T16:47:44.420Z,41.40
2023-05-04T16:50:12.976Z,41.50
2023-05-04T16:52:40.000Z,41.60
2023-05-04T16:55:10.606Z,41.70
2023-05-04T16:57:38.361Z,41.60
2023-05-04T17:00:06.844Z,41.60
2023-05-04T17:02:34.243Z,41.50
2023-05-04T17:05:01.396Z,41.50
2023-05-04T17:07:28.655Z,41.30
2023-05-04T17:09:55.515Z,41.10
2023-05-04T17:12:23.411Z,41.00
2023-05-04T17:14:50.376Z,40.60
2023-05-04T17:17:17.183Z,40.40
2023-05-04T17:19:43.993Z,40.10
2023-05-04T17:22:11.388Z,39.90
2023-05-04T17:24:38.172Z,40.90
2023-05-04T17:27:06.048Z,39.40
2023-05-04T17:29:32.866Z,39.10
2023-05-04T17:31:59.695Z,38.90
2023-05-04T17:34:26.592Z,38.60
2023-05-04T17:36:54.287Z,38.40
2023-05-04T17:39:21.118Z,38.10
2023-05-04T17:41:48.920Z,33.80
2023-05-04T17:44:16.555Z,37.50
2023-05-04T17:46:43.895Z,37.10
2023-05-04T17:49:11.024Z,36.80
2023-05-04T17:51:39.506Z,36.50
2023-05-04T17:54:06.469Z,36.20
2023-05-04T17:56:33.423Z,35.90
2023-05-04T17:59:00.400Z,35.60
2023-05-04T18:01:27.454Z,35.30
2023-05-04T18:03:54.514Z,34.70
2023-05-04T18:06:21.441Z,34.60
2023-05-04T18:08:48.289Z,34.40
2023-05-04T18:11:15.212Z,33.90
2023-05-04T18:13:42.007Z,33.80
2023-05-04T18:16:08.981Z,33.30
2023-05-04T18:18:35.991Z,33.00
2023-05-04T18:21:03.000Z,32.80
2023-05-04T18:23:30.130Z,32.40
2023-05-04T18:25:57.008Z,32.20
2023-05-04T18:28:23.849Z,32.20
2023-05-04T18:30:50.821Z,31.90
2023-05-04T18:33:17.689Z,31.60
2023-05-04T18:35:44.460Z,31.40
2023-05-04T18:38:11.327Z,31.20
2023-05-04T18:40:38.137Z,30.90
2023-05-04T18:43:05.192Z,30.70
2023-05-04T18:45:32.133Z,30.40
2023-05-04T18:47:59.107Z,30.20
2023-05-04T18:50:26.022Z,30.00
2023-05-04T18:52:54.107Z,29.80
2023-05-04T18:55:21.196Z,29.50
2023-05-04T18:57:48.039Z,29.30
2023-05-04T19:00:15.224Z,29.10
2023-05-04T19:02:42.015Z,29.00
2023-05-04T19:05:10.435Z,28.70
2023-05-04T19:07:38.536Z,28.60
2023-05-04T19:10:06.667Z,28.10
2023-05-04T19:12:33.641Z,28.00
2023-05-04T19:15:00.508Z,27.90
2023-05-04T19:17:27.352Z,27.80
2023-05-04T19:19:54.187Z,27.50
2023-05-04T19:22:21.007Z,27.40
2023-05-04T19:24:51.460Z,27.20
2023-05-04T19:27:18.302Z,27.10
2023-05-04T19:29:45.119Z,26.90
2023-05-04T19:32:22.766Z,26.90
2023-05-04T19:34:51.831Z,26.70
2023-05-04T19:37:19.008Z,26.60
2023-05-04T19:39:46.136Z,26.40
2023-05-04T19:42:12.931Z,26.40
2023-05-04T19:44:39.690Z,26.20
2023-05-04T19:47:06.832Z,26.10
2023-05-04T19:49:33.705Z,26.00
2023-05-04T19:52:00.833Z,25.90
2023-05-04T19:54:27.607Z,25.80
2023-05-04T19:56:54.445Z,25.70
2023-05-04T19:59:21.225Z,25.60
2023-05-04T20:01:48.105Z,25.50
2023-05-04T20:04:16.065Z,25.40
2023-05-04T20:06:43.144Z,25.30
2023-05-04T20:09:10.474Z,25.20
2023-05-04T20:11:38.286Z,25.20
2023-05-04T20:14:05.300Z,25.10
2023-05-04T20:16:32.288Z,25.00
2023-05-04T20:19:00.647Z,24.90
2023-05-04T20:21:29.886Z,24.80
2023-05-04T20:23:56.789Z,24.80
2023-05-04T20:26:23.570Z,24.70
2023-05-04T20:28:50.478Z,24.70
2023-05-04T20:31:17.646Z,24.60
2023-05-04T20:33:44.449Z,24.60
2023-05-04T20:36:12.531Z,24.50
2023-05-04T20:38:39.445Z,24.50
2023-05-04T20:41:09.780Z,24.50
2023-05-04T20:43:36.629Z,24.40
2023-05-04T20:46:04.413Z,24.40
2023-05-04T20:48:31.812Z,24.30
2023-05-04T20:51:10.473Z,24.30
2023-05-04T20:53:41.143Z,24.30
2023-05-04T20:56:08.061Z,24.20
2023-05-04T20:58:34.901Z,24.20
2023-05-04T21:01:05.752Z,24.20
2023-05-04T21:03:33.269Z,24.20
2023-05-04T21:06:01.872Z,24.10
2023-05-04T21:08:29.151Z,24.10
2023-05-04T21:10:55.979Z,24.00
2023-05-04T21:13:22.854Z,24.00
2023-05-04T21:15:49.684Z,24.00
2023-05-04T21:18:18.430Z,23.90
2023-05-04T21:20:45.649Z,23.90
2023-05-04T21:23:12.524Z,23.90
2023-05-04T21:25:39.328Z,23.80
2023-05-04T21:28:06.369Z,23.80
2023-05-04T21:30:33.166Z,23.80
2023-05-04T21:33:00.755Z,23.70
2023-05-04T21:35:31.376Z,23.70
2023-05-04T21:37:59.318Z,23.60
2023-05-04T21:40:27.550Z,23.60
2023-05-04T21:42:54.404Z,23.50
2023-05-04T21:45:21.331Z,23.40
2023-05-04T21:47:48.543Z,23.40
2023-05-04T21:50:16.227Z,23.30
2023-05-04T21:52:43.052Z,23.30
2023-05-04T21:55:10.137Z,23.20
2023-05-04T21:57:37.209Z,23.20
2023-05-04T22:00:11.935Z,23.10
2023-05-04T22:02:39.356Z,23.00
2023-05-04T22:05:06.507Z,23.00
2023-05-04T22:07:35.317Z,22.80
2023-05-04T22:10:04.613Z,22.80
2023-05-04T22:12:31.528Z,22.70
2023-05-04T22:14:58.382Z,22.60
2023-05-04T22:17:25.236Z,22.60
2023-05-04T22:19:52.127Z,22.50
2023-05-04T22:22:18.921Z,22.40
2023-05-04T22:24:45.706Z,22.40
2023-05-04T22:27:12.488Z,22.30
2023-05-04T22:29:39.395Z,22.20
2023-05-04T22:32:06.195Z,22.10
2023-05-04T22:34:33.112Z,22.10
2023-05-04T22:36:59.883Z,22.00
2023-05-04T22:39:26.823Z,21.90
2023-05-04T22:41:53.664Z,21.80
2023-05-04T22:44:20.551Z,21.70
2023-05-04T22:46:49.331Z,21.70
2023-05-04T22:49:17.645Z,21.70
2023-05-04T22:51:44.457Z,21.60
2023-05-04T22:54:11.253Z,21.50
2023-05-04T22:56:38.084Z,21.40
2023-05-04T22:59:06.282Z,21.40
2023-05-04T23:01:33.187Z,21.30
2023-05-04T23:03:59.963Z,21.30
2023-05-04T23:06:28.432Z,21.30
2023-05-04T23:08:55.252Z,21.20
2023-05-04T23:11:22.137Z,21.20
2023-05-04T23:13:49.282Z,21.20
2023-05-04T23:16:16.262Z,21.10
2023-05-04T23:18:43.138Z,21.10
2023-05-04T23:21:09.978Z,21.00
2023-05-04T23:23:37.102Z,20.90
2023-05-04T23:26:04.028Z,21.00
2023-05-04T23:28:30.885Z,20.90
2023-05-04T23:30:57.675Z,20.90
2023-05-04T23:35:55.652Z,20.80
2023-05-04T23:38:22.904Z,20.80
2023-05-04T23:40:50.082Z,20.80
2023-05-04T23:43:17.009Z,20.80
2023-05-04T23:45:43.921Z,20.70
2023-05-04T23:48:10.967Z,20.70
2023-05-04T23:50:37.741Z,20.70
2023-05-04T23:53:04.603Z,20.70
2023-05-04T23:55:31.436Z,20.70
2023-05-04T23:57:58.499Z,20.60
